createdAt,value
2023-05-20T00:00:11.338Z,13.77
2023-05-20T00:01:11.339Z,13.89
2023-05-20T00:02:11.324Z,13.95
2023-05-20T00:03:11.356Z,13.78
2023-05-20T00:04:11.464Z,13.81
2023-05-20T00:05:11.291Z,13.78
2023-05-20T00:06:11.271Z,13.74
2023-05-20T00:07:11.264Z,13.86
2023-05-20T00:08:11.319Z,13.86
2023-05-20T00:09:11.265Z,13.86
2023-05-20T00:10:11.224Z,13.77
2023-05-20T00:11:11.225Z,13.83
2023-05-20T00:12:11.236Z,13.92
2023-05-20T00:13:11.211Z,13.78
2023-05-20T00:14:11.177Z,13.78
2023-05-20T00:15:11.175Z,13.78
2023-05-20T00:16:11.201Z,13.72
2023-05-20T00:17:11.152Z,13.71
2023-05-20T00:18:11.206Z,13.72
2023-05-20T00:19:11.199Z,13.63
2023-05-20T00:20:11.117Z,13.71
2023-05-20T00:21:11.109Z,13.71
2023-05-20T00:22:11.096Z,13.70
2023-05-20T00:23:11.087Z,13.72
2023-05-20T00:24:11.094Z,13.67
2023-05-20T00:25:11.083Z,13.68
2023-05-20T00:26:11.047Z,13.71
2023-05-20T00:27:11.037Z,13.71
2023-05-20T00:28:11.048Z,13.74
2023-05-20T00:29:11.044Z,13.85
2023-05-20T00:30:11.009Z,13.85
2023-05-20T00:31:10.994Z,13.71
2023-05-20T00:32:11.015Z,13.83
2023-05-20T00:33:11.027Z,13.67
2023-05-20T00:34:10.957Z,13.70
2023-05-20T00:35:10.962Z,13.77
2023-05-20T00:36:10.990Z,13.78
2023-05-20T00:37:10.922Z,13.62
2023-05-20T00:38:10.909Z,13.67
2023-05-20T00:39:10.908Z,13.75
2023-05-20T00:40:11.325Z,13.71
2023-05-20T00:41:10.939Z,13.72
2023-05-20T00:42:10.868Z,13.68
2023-05-20T00:43:10.852Z,13.67
2023-05-20T00:44:10.860Z,13.67
2023-05-20T00:45:10.822Z,13.72
2023-05-20T00:46:10.896Z,13.72
2023-05-20T00:47:10.811Z,13.68
2023-05-20T00:48:10.805Z,13.65
2023-05-20T00:49:10.799Z,13.75
2023-05-20T00:50:10.793Z,13.63
2023-05-20T00:51:10.762Z,13.62
2023-05-20T00:52:10.764Z,13.60
2023-05-20T00:53:10.737Z,13.65
2023-05-20T00:54:10.739Z,13.56
2023-05-20T00:55:10.712Z,13.49
2023-05-20T00:56:10.695Z,13.54
2023-05-20T00:57:10.710Z,13.57
2023-05-20T00:58:10.683Z,13.52
2023-05-20T00:59:10.667Z,13.49
2023-05-20T01:00:10.714Z,13.38
2023-05-20T01:01:10.693Z,13.42
2023-05-20T01:02:10.663Z,13.33
2023-05-20T01:03:10.706Z,13.31
2023-05-20T01:04:10.620Z,13.30
2023-05-20T01:05:10.630Z,13.35
2023-05-20T01:06:10.587Z,13.31
2023-05-20T01:07:10.572Z,13.20
2023-05-20T01:08:10.567Z,13.23
2023-05-20T01:09:10.562Z,13.25
2023-05-20T01:10:10.582Z,13.20
2023-05-20T01:11:10.526Z,13.35
2023-05-20T01:12:10.520Z,13.27
2023-05-20T01:13:10.529Z,13.27
2023-05-20T01:14:10.494Z,13.22
2023-05-20T01:15:10.491Z,13.30
2023-05-20T01:16:10.608Z,13.13
2023-05-20T01:17:10.463Z,13.28
2023-05-20T01:18:10.502Z,13.28
2023-05-20T01:19:10.488Z,13.30
2023-05-20T01:20:10.469Z,13.20
2023-05-20T01:21:10.415Z,13.18
2023-05-20T01:22:10.420Z,13.16
2023-05-20T01:23:10.413Z,13.15
2023-05-20T01:24:10.383Z,13.13
2023-05-20T01:25:10.372Z,13.11
2023-05-20T01:26:10.377Z,13.16
2023-05-20T01:27:10.378Z,13.15
2023-05-20T01:28:10.336Z,13.12
2023-05-20T01:29:10.344Z,13.13
2023-05-20T01:30:10.316Z,13.09
2023-05-20T01:31:10.350Z,13.11
2023-05-20T01:32:10.306Z,12.97
2023-05-20T01:33:10.306Z,12.95
2023-05-20T01:34:10.268Z,12.98
2023-05-20T01:35:10.281Z,13.01
2023-05-20T01:36:10.249Z,13.01
2023-05-20T01:37:10.248Z,12.97
2023-05-20T01:38:10.225Z,12.98
2023-05-20T01:39:10.223Z,12.95
2023-05-20T01:40:10.214Z,12.91
2023-05-20T01:41:10.199Z,12.98
2023-05-20T01:42:10.213Z,12.95
2023-05-20T01:43:10.172Z,13.00
2023-05-20T01:44:10.155Z,12.98
2023-05-20T01:45:10.169Z,12.94
2023-05-20T01:46:10.168Z,12.94
2023-05-20T01:47:10.119Z,12.90
2023-05-20T01:48:10.166Z,12.86
2023-05-20T01:49:10.100Z,12.78
2023-05-20T01:50:10.104Z,12.82
2023-05-20T01:51:10.074Z,12.75
2023-05-20T01:52:10.074Z,12.73
2023-05-20T01:53:10.060Z,12.67
2023-05-20T01:54:10.056Z,12.73
2023-05-20T01:55:10.036Z,12.72
2023-05-20T01:56:10.030Z,12.67
2023-05-20T01:57:10.021Z,12.67
2023-05-20T01:58:09.998Z,12.62
2023-05-20T01:59:10.005Z,12.62
2023-05-20T02:00:09.993Z,12.60
2023-05-20T02:01:10.027Z,12.61
2023-05-20T02:02:09.998Z,12.54
2023-05-20T02:03:10.061Z,12.57
2023-05-20T02:04:09.984Z,12.43
2023-05-20T02:05:09.918Z,12.49
2023-05-20T02:06:10.043Z,12.46
2023-05-20T02:07:09.913Z,12.43
2023-05-20T02:08:09.891Z,12.36
2023-05-20T02:09:09.887Z,12.36
2023-05-20T02:10:09.869Z,12.37
2023-05-20T02:11:09.849Z,12.29
2023-05-20T02:12:09.849Z,12.32
2023-05-20T02:13:09.829Z,12.29
2023-05-20T02:14:09.845Z,12.28
2023-05-20T02:15:09.828Z,12.35
2023-05-20T02:16:09.861Z,12.29
2023-05-20T02:17:09.815Z,12.39
2023-05-20T02:18:09.852Z,12.29
2023-05-20T02:19:09.788Z,12.32
2023-05-20T02:20:09.775Z,12.28
2023-05-20T02:21:09.742Z,12.22
2023-05-20T02:22:09.732Z,12.22
2023-05-20T02:23:09.716Z,12.20
2023-05-20T02:24:09.715Z,12.10
2023-05-20T02:25:09.696Z,12.21
2023-05-20T02:26:09.703Z,12.20
2023-05-20T02:27:09.671Z,12.21
2023-05-20T02:28:09.663Z,12.20
2023-05-20T02:29:09.654Z,12.20
2023-05-20T02:30:09.654Z,12.15
2023-05-20T02:31:09.640Z,12.12
2023-05-20T02:32:09.623Z,12.12
2023-05-20T02:33:09.703Z,12.09
2023-05-20T02:34:09.635Z,12.00
2023-05-20T02:35:09.599Z,12.06
2023-05-20T02:36:09.622Z,12.03
2023-05-20T02:37:09.559Z,12.07
2023-05-20T02:38:09.550Z,12.06
2023-05-20T02:39:09.534Z,12.06
2023-05-20T02:40:09.557Z,12.02
2023-05-20T02:41:09.541Z,11.99
2023-05-20T02:42:09.528Z,12.00
2023-05-20T02:43:09.502Z,11.99
2023-05-20T02:44:09.492Z,12.04
2023-05-20T02:45:09.490Z,11.95
2023-05-20T02:46:09.486Z,11.97
2023-05-20T02:47:09.466Z,11.97
2023-05-20T02:48:09.522Z,11.95
2023-05-20T02:49:09.444Z,11.94
2023-05-20T02:50:09.423Z,11.84
2023-05-20T02:51:09.400Z,11.88
2023-05-20T02:52:09.398Z,11.94
2023-05-20T02:53:09.390Z,11.95
2023-05-20T02:54:09.367Z,11.90
2023-05-20T02:55:09.371Z,11.84
2023-05-20T02:56:09.347Z,11.95
2023-05-20T02:57:09.351Z,11.83
2023-05-20T02:58:09.323Z,11.95
2023-05-20T02:59:09.321Z,12.00
2023-05-20T03:00:09.303Z,11.88
2023-05-20T03:01:09.333Z,11.99
2023-05-20T03:02:09.278Z,12.04
2023-05-20T03:03:09.338Z,11.97
2023-05-20T03:04:09.277Z,12.00
2023-05-20T03:05:09.275Z,11.97
2023-05-20T03:06:09.231Z,11.94
2023-05-20T03:07:09.251Z,12.04
2023-05-20T03:08:09.213Z,12.06
2023-05-20T03:09:09.208Z,11.95
2023-05-20T03:10:09.189Z,12.02
2023-05-20T03:11:09.196Z,12.00
2023-05-20T03:12:09.166Z,11.99
2023-05-20T03:13:09.179Z,11.97
2023-05-20T03:14:09.145Z,11.95
2023-05-20T03:15:09.128Z,11.99
2023-05-20T03:16:09.154Z,12.03
2023-05-20T03:17:09.124Z,11.95
2023-05-20T03:18:09.129Z,12.03
2023-05-20T03:19:09.099Z,11.99
2023-05-20T03:20:09.111Z,11.94
2023-05-20T03:21:09.089Z,11.97
2023-05-20T03:22:09.059Z,11.99
2023-05-20T03:23:09.057Z,12.06
2023-05-20T03:24:09.040Z,11.97
2023-05-20T03:25:09.041Z,12.00
2023-05-20T03:26:09.003Z,12.02
2023-05-20T03:27:08.992Z,12.02
2023-05-20T03:28:08.981Z,12.02
2023-05-20T03:29:09.028Z,12.04
2023-05-20T03:30:08.958Z,12.04
2023-05-20T03:31:08.975Z,11.94
2023-05-20T03:32:10.725Z,12.00
2023-05-20T03:33:08.922Z,12.04
2023-05-20T03:34:08.920Z,12.04
2023-05-20T03:35:08.913Z,12.03
2023-05-20T03:36:08.905Z,12.00
2023-05-20T03:37:08.903Z,11.95
2023-05-20T03:38:08.878Z,12.03
2023-05-20T03:39:08.868Z,12.00
2023-05-20T03:40:08.854Z,11.95
2023-05-20T03:41:08.837Z,12.02
2023-05-20T03:42:08.858Z,11.99
2023-05-20T03:43:08.808Z,11.97
2023-05-20T03:44:08.799Z,11.94
2023-05-20T03:45:08.778Z,11.97
2023-05-20T03:46:08.818Z,11.95
2023-05-20T03:47:08.789Z,12.00
2023-05-20T03:48:08.818Z,11.99
2023-05-20T03:49:08.741Z,12.03
2023-05-20T03:50:08.742Z,12.03
2023-05-20T03:51:08.723Z,12.02
2023-05-20T03:52:08.728Z,12.02
2023-05-20T03:53:08.770Z,12.03
2023-05-20T03:54:08.690Z,12.09
2023-05-20T03:55:08.673Z,12.03
2023-05-20T03:56:08.656Z,12.00
2023-05-20T03:57:08.643Z,12.00
2023-05-20T03:58:08.661Z,12.06
2023-05-20T03:59:08.634Z,12.04
2023-05-20T04:00:08.614Z,12.12
2023-05-20T04:01:08.602Z,12.17
2023-05-20T04:02:08.656Z,12.10
2023-05-20T04:03:08.672Z,12.10
2023-05-20T04:04:08.653Z,12.07
2023-05-20T04:05:08.675Z,12.12
2023-05-20T04:06:08.550Z,12.12
2023-05-20T04:07:08.531Z,12.15
2023-05-20T04:08:08.536Z,12.21
2023-05-20T04:09:08.529Z,12.20
2023-05-20T04:10:08.505Z,12.15
2023-05-20T04:11:08.491Z,12.12
2023-05-20T04:12:08.477Z,12.17
2023-05-20T04:13:08.467Z,12.15
2023-05-20T04:14:08.454Z,12.13
2023-05-20T04:15:08.446Z,12.21
2023-05-20T04:16:08.503Z,12.18
2023-05-20T04:17:08.489Z,12.15
2023-05-20T04:18:08.480Z,12.18
2023-05-20T04:19:08.514Z,12.18
2023-05-20T04:20:08.399Z,12.21
2023-05-20T04:21:08.400Z,12.13
2023-05-20T04:22:08.376Z,12.27
2023-05-20T04:23:08.348Z,12.22
2023-05-20T04:24:08.345Z,12.21
2023-05-20T04:25:08.366Z,12.21
2023-05-20T04:26:08.329Z,12.29
2023-05-20T04:27:08.312Z,12.32
2023-05-20T04:28:08.295Z,12.32
2023-05-20T04:29:08.305Z,12.29
2023-05-20T04:30:08.277Z,12.28
2023-05-20T04:31:08.311Z,12.31
2023-05-20T04:32:08.380Z,12.29
2023-05-20T04:33:08.280Z,12.28
2023-05-20T04:34:08.228Z,12.22
2023-05-20T04:35:08.222Z,12.28
2023-05-20T04:36:08.203Z,12.24
2023-05-20T04:37:08.224Z,12.27
2023-05-20T04:38:08.181Z,12.25
2023-05-20T04:39:08.177Z,12.32
2023-05-20T04:40:08.157Z,12.21
2023-05-20T04:41:08.190Z,12.22
2023-05-20T04:42:08.142Z,12.29
2023-05-20T04:43:08.165Z,12.32
2023-05-20T04:44:08.111Z,12.28
2023-05-20T04:45:08.098Z,12.32
2023-05-20T04:46:08.174Z,12.39
2023-05-20T04:47:08.117Z,12.40
2023-05-20T04:48:08.127Z,12.31
2023-05-20T04:49:08.065Z,12.35
2023-05-20T04:50:08.044Z,12.42
2023-05-20T04:51:08.033Z,12.46
2023-05-20T04:52:08.025Z,12.43
2023-05-20T04:53:08.022Z,12.39
2023-05-20T04:54:08.019Z,12.43
2023-05-20T04:55:07.994Z,12.49
2023-05-20T04:56:07.984Z,12.55
2023-05-20T04:57:07.989Z,12.53
2023-05-20T04:58:07.956Z,12.58
2023-05-20T04:59:07.970Z,12.57
2023-05-20T05:00:07.955Z,12.64
2023-05-20T05:01:07.957Z,12.58
2023-05-20T05:02:07.908Z,12.55
2023-05-20T05:03:07.910Z,12.65
2023-05-20T05:04:07.902Z,12.67
2023-05-20T05:05:07.940Z,12.67
2023-05-20T05:06:07.865Z,12.79
2023-05-20T05:07:07.858Z,12.86
2023-05-20T05:08:07.839Z,12.85
2023-05-20T05:09:07.832Z,12.83
2023-05-20T05:10:07.858Z,12.95
2023-05-20T05:11:07.810Z,12.97
2023-05-20T05:12:07.825Z,12.93
2023-05-20T05:13:07.806Z,13.00
2023-05-20T05:14:07.793Z,13.18
2023-05-20T05:15:07.761Z,13.13
2023-05-20T05:16:07.818Z,13.30
2023-05-20T05:17:07.755Z,13.23
2023-05-20T05:18:07.808Z,13.33
2023-05-20T05:19:07.785Z,13.39
2023-05-20T05:20:07.717Z,13.42
2023-05-20T05:21:07.703Z,13.49
2023-05-20T05:22:07.690Z,13.62
2023-05-20T05:23:07.685Z,13.62
2023-05-20T05:24:07.669Z,13.63
2023-05-20T05:25:07.657Z,13.68
2023-05-20T05:26:07.647Z,13.63
2023-05-20T05:27:07.656Z,13.70
2023-05-20T05:28:07.634Z,13.71
2023-05-20T05:29:08.763Z,13.78
2023-05-20T05:30:07.594Z,13.87
2023-05-20T05:31:07.597Z,13.97
2023-05-20T05:32:07.621Z,14.05
2023-05-20T05:33:07.712Z,14.15
2023-05-20T05:34:07.567Z,14.26
2023-05-20T05:35:08.522Z,14.35
2023-05-20T05:36:07.533Z,14.47
2023-05-20T05:37:07.530Z,14.70
2023-05-20T05:38:07.510Z,14.81
2023-05-20T05:39:07.497Z,14.81
2023-05-20T05:40:07.481Z,14.84
2023-05-20T05:41:07.483Z,14.96
2023-05-20T05:42:07.481Z,14.96
2023-05-20T05:43:07.464Z,15.06
2023-05-20T05:44:07.432Z,15.03
2023-05-20T05:45:07.466Z,15.06
2023-05-20T05:46:07.416Z,15.21
2023-05-20T05:47:07.527Z,15.33
2023-05-20T05:48:07.457Z,15.35
2023-05-20T05:49:07.380Z,15.54
2023-05-20T05:50:07.368Z,15.67
2023-05-20T05:51:07.367Z,15.76
2023-05-20T05:52:07.375Z,15.88
2023-05-20T05:53:07.331Z,16.09
2023-05-20T05:54:07.379Z,16.26
2023-05-20T05:55:07.316Z,16.41
2023-05-20T05:56:07.324Z,16.54
2023-05-20T05:57:07.303Z,16.64
2023-05-20T05:58:07.291Z,16.81
2023-05-20T05:59:07.290Z,16.81
2023-05-20T06:00:07.248Z,16.99
2023-05-20T06:01:07.343Z,17.02
2023-05-20T06:02:07.296Z,17.20
2023-05-20T06:03:07.283Z,17.27
2023-05-20T06:04:07.365Z,17.33
2023-05-20T06:05:07.201Z,17.27
2023-05-20T06:06:07.184Z,17.38
2023-05-20T06:07:07.173Z,17.59
2023-05-20T06:08:07.186Z,17.67
2023-05-20T06:09:07.156Z,17.70
2023-05-20T06:10:07.137Z,17.36
2023-05-20T06:11:07.132Z,17.39
2023-05-20T06:12:07.138Z,17.44
2023-05-20T06:13:07.118Z,17.54
2023-05-20T06:14:07.102Z,17.63
2023-05-20T06:15:07.083Z,17.65
2023-05-20T06:16:07.073Z,17.71
2023-05-20T06:17:07.260Z,17.79
2023-05-20T06:18:07.164Z,17.83
2023-05-20T06:19:07.050Z,17.78
2023-05-20T06:20:07.041Z,17.64
2023-05-20T06:21:07.016Z,17.59
2023-05-20T06:22:06.998Z,17.86
2023-05-20T06:23:06.995Z,18.01
2023-05-20T06:24:07.002Z,18.00
2023-05-20T06:25:06.973Z,18.05
2023-05-20T06:26:06.957Z,18.29
2023-05-20T06:27:06.960Z,18.41
2023-05-20T06:28:06.932Z,18.58
2023-05-20T06:29:06.944Z,18.73
2023-05-20T06:30:06.911Z,18.68
2023-05-20T06:31:06.946Z,18.63
2023-05-20T06:32:06.892Z,18.65
2023-05-20T06:33:07.049Z,18.47
2023-05-20T06:34:06.884Z,18.52
2023-05-20T06:35:06.879Z,18.65
2023-05-20T06:36:06.849Z,18.55
2023-05-20T06:37:06.842Z,18.55
2023-05-20T06:38:06.912Z,18.55
2023-05-20T06:39:06.816Z,18.43
2023-05-20T06:40:06.832Z,18.52
2023-05-20T06:41:06.823Z,18.45
2023-05-20T06:42:06.781Z,18.53
2023-05-20T06:43:06.774Z,18.34
2023-05-20T06:44:06.759Z,18.11
2023-05-20T06:45:06.769Z,17.95
2023-05-20T06:46:06.800Z,18.04
2023-05-20T06:47:06.728Z,18.01
2023-05-20T06:48:06.729Z,17.86
2023-05-20T06:49:06.735Z,17.79
2023-05-20T06:50:06.686Z,17.54
2023-05-20T06:51:06.700Z,17.57
2023-05-20T06:52:06.681Z,17.48
2023-05-20T06:53:06.673Z,17.49
2023-05-20T06:54:06.657Z,17.63
2023-05-20T06:55:06.641Z,17.64
2023-05-20T06:56:06.624Z,17.67
2023-05-20T06:57:06.670Z,17.64
2023-05-20T06:58:06.610Z,17.72
2023-05-20T06:59:06.594Z,17.80
2023-05-20T07:00:06.591Z,17.95
2023-05-20T07:01:06.579Z,18.00
2023-05-20T07:02:06.846Z,18.10
2023-05-20T07:03:06.623Z,18.18
2023-05-20T07:04:06.564Z,18.23
2023-05-20T07:05:06.548Z,18.19
2023-05-20T07:06:06.510Z,18.25
2023-05-20T07:07:06.515Z,18.23
2023-05-20T07:08:06.482Z,18.37
2023-05-20T07:09:06.482Z,18.50
2023-05-20T07:10:06.485Z,18.59
2023-05-20T07:11:06.465Z,18.62
2023-05-20T07:12:06.472Z,18.71
2023-05-20T07:13:06.437Z,18.68
2023-05-20T07:14:06.426Z,18.83
2023-05-20T07:15:06.409Z,18.77
2023-05-20T07:16:06.522Z,18.86
2023-05-20T07:17:06.386Z,18.81
2023-05-20T07:18:06.435Z,18.86
2023-05-20T07:19:06.419Z,18.86
2023-05-20T07:20:06.354Z,18.78
2023-05-20T07:21:06.364Z,18.89
2023-05-20T07:22:06.351Z,19.04
2023-05-20T07:23:06.352Z,19.08
2023-05-20T07:24:06.328Z,19.16
2023-05-20T07:25:06.294Z,19.08
2023-05-20T07:26:06.287Z,19.21
2023-05-20T07:27:06.297Z,19.34
2023-05-20T07:28:06.286Z,19.19
2023-05-20T07:29:06.249Z,18.93
2023-05-20T07:30:06.233Z,18.86
2023-05-20T07:31:06.246Z,18.77
2023-05-20T07:32:06.322Z,18.62
2023-05-20T07:33:06.296Z,18.63
2023-05-20T07:34:06.196Z,18.74
2023-05-20T07:35:06.179Z,18.90
2023-05-20T07:36:07.152Z,19.04
2023-05-20T07:37:06.187Z,19.08
2023-05-20T07:38:06.169Z,19.26
2023-05-20T07:39:09.016Z,19.31
2023-05-20T07:40:07.125Z,19.45
2023-05-20T07:41:06.129Z,19.44
2023-05-20T07:42:06.112Z,19.48
2023-05-20T07:43:06.107Z,19.41
2023-05-20T07:44:06.092Z,19.55
2023-05-20T07:45:06.081Z,19.34
2023-05-20T07:46:06.082Z,19.30
2023-05-20T07:47:06.050Z,19.51
2023-05-20T07:48:06.082Z,19.52
2023-05-20T07:49:06.061Z,19.55
2023-05-20T07:50:06.020Z,19.63
2023-05-20T07:51:06.004Z,19.58
2023-05-20T07:52:05.992Z,19.59
2023-05-20T07:53:06.023Z,19.66
2023-05-20T07:54:05.973Z,19.70
2023-05-20T07:55:05.960Z,19.64
2023-05-20T07:56:06.000Z,19.66
2023-05-20T07:57:05.941Z,19.73
2023-05-20T07:58:05.925Z,19.79
2023-05-20T07:59:05.936Z,19.58
2023-05-20T08:00:05.904Z,19.69
2023-05-20T08:01:05.896Z,19.73
2023-05-20T08:02:05.974Z,19.79
2023-05-20T08:03:06.055Z,19.86
2023-05-20T08:04:06.015Z,19.76
2023-05-20T08:05:05.868Z,19.82
2023-05-20T08:06:05.858Z,19.86
2023-05-20T08:07:05.829Z,19.79
2023-05-20T08:08:05.817Z,19.77
2023-05-20T08:09:05.836Z,19.77
2023-05-20T08:10:05.806Z,19.84
2023-05-20T08:11:05.792Z,19.85
2023-05-20T08:12:05.772Z,19.94
2023-05-20T08:13:05.765Z,20.06
2023-05-20T08:14:05.742Z,20.00
2023-05-20T08:15:05.733Z,19.85
2023-05-20T08:16:05.748Z,19.64
2023-05-20T08:17:05.744Z,19.64
2023-05-20T08:18:05.740Z,19.63
2023-05-20T08:19:05.712Z,19.64
2023-05-20T08:20:05.690Z,19.69
2023-05-20T08:21:05.680Z,19.84
2023-05-20T08:22:05.650Z,19.89
2023-05-20T08:23:05.652Z,19.88
2023-05-20T08:24:05.625Z,19.86
2023-05-20T08:25:05.648Z,19.95
2023-05-20T08:26:05.605Z,19.99
2023-05-20T08:27:05.602Z,20.02
2023-05-20T08:28:05.655Z,20.02
2023-05-20T08:29:05.613Z,20.16
2023-05-20T08:30:05.629Z,20.29
2023-05-20T08:31:05.654Z,20.47
2023-05-20T08:32:05.543Z,20.58
2023-05-20T08:33:05.598Z,20.63
2023-05-20T08:34:05.520Z,20.77
2023-05-20T08:35:05.518Z,20.93
2023-05-20T08:36:05.501Z,20.85
2023-05-20T08:37:05.485Z,20.99
2023-05-20T08:38:05.490Z,20.99
2023-05-20T08:39:05.462Z,20.88
2023-05-20T08:40:05.465Z,20.78
2023-05-20T08:41:05.474Z,20.72
2023-05-20T08:42:05.438Z,20.74
2023-05-20T08:43:05.415Z,20.75
2023-05-20T08:44:05.429Z,20.85
2023-05-20T08:45:05.409Z,21.00
2023-05-20T08:46:05.475Z,21.00
2023-05-20T08:47:05.371Z,21.05
2023-05-20T08:48:05.446Z,21.20
2023-05-20T08:49:05.370Z,21.21
2023-05-20T08:50:05.346Z,21.24
2023-05-20T08:51:05.333Z,21.22
2023-05-20T08:52:05.323Z,20.80
2023-05-20T08:53:05.304Z,20.72
2023-05-20T08:54:05.316Z,20.67
2023-05-20T08:55:05.319Z,20.56
2023-05-20T08:56:05.277Z,20.60
2023-05-20T08:57:05.312Z,20.41
2023-05-20T08:58:05.272Z,20.43
2023-05-20T08:59:05.239Z,20.39
2023-05-20T09:00:05.258Z,20.40
2023-05-20T09:01:05.220Z,20.47
2023-05-20T09:02:05.245Z,20.26
2023-05-20T09:03:05.233Z,20.36
2023-05-20T09:04:05.187Z,20.07
2023-05-20T09:05:05.204Z,20.09
2023-05-20T09:06:05.176Z,20.06
2023-05-20T09:07:05.177Z,19.84
2023-05-20T09:08:05.339Z,19.70
2023-05-20T09:09:05.132Z,19.44
2023-05-20T09:10:05.112Z,19.48
2023-05-20T09:11:05.125Z,19.24
2023-05-20T09:12:05.097Z,19.24
2023-05-20T09:13:05.134Z,18.99
2023-05-20T09:14:05.063Z,18.95
2023-05-20T09:15:05.069Z,18.98
2023-05-20T09:16:05.071Z,18.92
2023-05-20T09:17:05.049Z,18.88
2023-05-20T09:18:05.116Z,19.00
2023-05-20T09:19:05.104Z,19.12
2023-05-20T09:20:05.013Z,19.18
2023-05-20T09:21:04.990Z,19.27
2023-05-20T09:22:04.980Z,19.33
2023-05-20T09:23:04.984Z,19.55
2023-05-20T09:24:04.969Z,19.55
2023-05-20T09:25:04.947Z,19.71
2023-05-20T09:26:04.986Z,19.73
2023-05-20T09:27:04.920Z,19.88
2023-05-20T09:28:04.927Z,20.18
2023-05-20T09:29:04.945Z,20.44
2023-05-20T09:30:04.887Z,20.51
2023-05-20T09:31:04.890Z,20.50
2023-05-20T09:32:05.128Z,20.66
2023-05-20T09:33:04.917Z,20.70
2023-05-20T09:34:04.846Z,20.87
2023-05-20T09:35:04.847Z,21.03
2023-05-20T09:36:04.810Z,20.85
2023-05-20T09:37:04.829Z,20.96
2023-05-20T09:38:04.806Z,20.99
2023-05-20T09:39:04.803Z,20.99
2023-05-20T09:40:04.788Z,20.77
2023-05-20T09:41:04.775Z,20.82
2023-05-20T09:42:04.767Z,20.97
2023-05-20T09:43:04.740Z,21.02
2023-05-20T09:44:04.728Z,21.02
2023-05-20T09:45:04.739Z,20.96
2023-05-20T09:46:04.764Z,20.99
2023-05-20T09:47:05.839Z,20.96
2023-05-20T09:48:04.709Z,20.85
2023-05-20T09:49:04.664Z,20.72
2023-05-20T09:50:04.676Z,20.72
2023-05-20T09:51:04.659Z,20.74
2023-05-20T09:52:04.661Z,20.74
2023-05-20T09:53:04.642Z,20.72
2023-05-20T09:54:04.615Z,20.52
2023-05-20T09:55:04.612Z,20.51
2023-05-20T09:56:04.612Z,20.55
2023-05-20T09:57:04.594Z,20.59
2023-05-20T09:58:04.584Z,20.60
2023-05-20T09:59:04.557Z,20.67
2023-05-20T10:00:04.547Z,20.77
2023-05-20T10:01:04.619Z,20.82
2023-05-20T10:02:04.534Z,20.63
2023-05-20T10:03:04.676Z,20.48
2023-05-20T10:04:04.590Z,20.29
2023-05-20T10:05:04.505Z,20.19
2023-05-20T10:06:04.485Z,20.18
2023-05-20T10:07:04.468Z,20.03
2023-05-20T10:08:04.463Z,19.94
2023-05-20T10:09:04.461Z,19.77
2023-05-20T10:10:04.462Z,19.73
2023-05-20T10:11:04.466Z,19.81
2023-05-20T10:12:04.462Z,19.88
2023-05-20T10:13:04.423Z,20.06
2023-05-20T10:14:04.398Z,20.13
2023-05-20T10:15:04.416Z,20.19
2023-05-20T10:16:04.468Z,20.34
2023-05-20T10:17:04.382Z,20.40
2023-05-20T10:18:04.372Z,20.24
2023-05-20T10:19:04.390Z,20.29
2023-05-20T10:20:06.651Z,20.21
2023-05-20T10:21:04.326Z,20.09
2023-05-20T10:22:04.321Z,20.03
2023-05-20T10:23:04.294Z,20.03
2023-05-20T10:24:04.277Z,20.21
2023-05-20T10:25:04.265Z,20.36
2023-05-20T10:26:04.254Z,20.25
2023-05-20T10:27:04.279Z,20.52
2023-05-20T10:28:04.233Z,20.69
2023-05-20T10:29:04.225Z,20.92
2023-05-20T10:30:04.218Z,20.97
2023-05-20T10:31:04.229Z,20.97
2023-05-20T10:32:04.246Z,20.96
2023-05-20T10:33:04.262Z,20.69
2023-05-20T10:34:04.166Z,20.70
2023-05-20T10:35:04.148Z,20.72
2023-05-20T10:36:04.149Z,20.81
2023-05-20T10:37:04.146Z,20.85
2023-05-20T10:38:04.121Z,20.87
2023-05-20T10:39:04.125Z,20.82
2023-05-20T10:40:04.106Z,20.88
2023-05-20T10:41:04.085Z,21.00
2023-05-20T10:42:04.081Z,21.14
2023-05-20T10:43:04.111Z,21.24
2023-05-20T10:44:04.062Z,21.45
2023-05-20T10:45:04.053Z,21.43
2023-05-20T10:46:07.502Z,21.32
2023-05-20T10:47:23.753Z,21.17
2023-05-20T10:48:05.105Z,21.17
2023-05-20T10:49:04.209Z,20.97
2023-05-20T10:50:03.995Z,20.90
2023-05-20T10:51:04.017Z,20.70
2023-05-20T10:52:03.965Z,20.82
2023-05-20T10:53:03.990Z,20.93
2023-05-20T10:54:03.944Z,21.09
2023-05-20T10:55:03.964Z,21.25
2023-05-20T10:56:03.961Z,21.21
2023-05-20T10:57:03.906Z,21.30
2023-05-20T10:58:03.915Z,21.40
2023-05-20T10:59:03.876Z,21.42
2023-05-20T11:00:03.873Z,21.14
2023-05-20T11:01:03.933Z,20.99
2023-05-20T11:02:03.845Z,20.95
2023-05-20T11:03:03.960Z,20.87
2023-05-20T11:04:03.923Z,20.97
2023-05-20T11:05:03.847Z,21.20
2023-05-20T11:06:03.805Z,21.32
2023-05-20T11:07:03.797Z,21.27
2023-05-20T11:08:08.091Z,21.22
2023-05-20T11:09:04.792Z,21.17
2023-05-20T11:10:03.754Z,21.27
2023-05-20T11:11:03.758Z,21.35
2023-05-20T11:12:03.731Z,21.51
2023-05-20T11:13:03.778Z,21.43
2023-05-20T11:14:03.714Z,21.67
2023-05-20T11:15:03.695Z,21.77
2023-05-20T11:16:03.731Z,21.91
2023-05-20T11:17:03.757Z,22.11
2023-05-20T11:18:03.686Z,22.23
2023-05-20T11:19:03.753Z,22.23
2023-05-20T11:20:03.675Z,22.44
2023-05-20T11:21:03.657Z,22.50
2023-05-20T11:22:03.626Z,22.54
2023-05-20T11:23:03.603Z,22.55
2023-05-20T11:24:03.598Z,22.70
2023-05-20T11:25:03.606Z,22.62
2023-05-20T11:26:03.604Z,22.59
2023-05-20T11:27:03.566Z,22.57
2023-05-20T11:28:03.578Z,22.50
2023-05-20T11:29:03.549Z,22.53
2023-05-20T11:30:03.536Z,22.48
2023-05-20T11:31:03.518Z,22.66
2023-05-20T11:32:03.539Z,22.75
2023-05-20T11:33:03.552Z,22.68
2023-05-20T11:34:03.486Z,22.65
2023-05-20T11:35:03.471Z,22.54
2023-05-20T11:36:04.884Z,22.33
2023-05-20T11:37:04.486Z,22.13
2023-05-20T11:38:03.458Z,22.00
2023-05-20T11:39:03.446Z,21.93
2023-05-20T11:40:03.423Z,21.99
2023-05-20T11:41:03.434Z,22.10
2023-05-20T11:42:03.418Z,22.17
2023-05-20T11:43:03.382Z,22.29
2023-05-20T11:44:03.369Z,22.29
2023-05-20T11:45:03.371Z,22.33
2023-05-20T11:46:03.419Z,22.32
2023-05-20T11:47:03.419Z,22.32
2023-05-20T11:48:03.394Z,22.07
2023-05-20T11:49:03.316Z,21.96
2023-05-20T11:50:03.313Z,21.82
2023-05-20T11:51:03.308Z,21.76
2023-05-20T11:52:03.286Z,21.61
2023-05-20T11:53:03.326Z,21.52
2023-05-20T11:54:03.259Z,21.58
2023-05-20T11:55:03.262Z,21.64
2023-05-20T11:56:03.243Z,21.70
2023-05-20T11:57:04.641Z,21.69
2023-05-20T11:58:03.261Z,21.70
2023-05-20T11:59:03.224Z,21.70
2023-05-20T12:00:03.193Z,21.77
2023-05-20T12:01:13.983Z,21.79
2023-05-20T12:02:04.174Z,21.85
2023-05-20T12:03:03.262Z,21.96
2023-05-20T12:04:03.302Z,21.95
2023-05-20T12:05:03.210Z,21.75
2023-05-20T12:06:03.134Z,21.46
2023-05-20T12:07:03.147Z,21.17
2023-05-20T12:08:03.102Z,21.27
2023-05-20T12:09:03.132Z,21.48
2023-05-20T12:10:03.080Z,21.61
2023-05-20T12:11:03.079Z,21.70
2023-05-20T12:12:03.065Z,21.91
2023-05-20T12:13:03.046Z,21.91
2023-05-20T12:14:03.058Z,21.67
2023-05-20T12:15:03.020Z,21.73
2023-05-20T12:16:03.028Z,21.72
2023-05-20T12:17:03.008Z,21.67
2023-05-20T12:18:03.013Z,21.83
2023-05-20T12:19:03.058Z,21.89
2023-05-20T12:20:03.004Z,21.93
2023-05-20T12:21:02.955Z,22.22
2023-05-20T12:22:02.950Z,22.28
2023-05-20T12:23:03.040Z,22.29
2023-05-20T12:24:02.922Z,22.08
2023-05-20T12:25:02.943Z,21.83
2023-05-20T12:26:02.940Z,21.85
2023-05-20T12:27:02.885Z,21.89
2023-05-20T12:28:02.872Z,21.93
2023-05-20T12:29:02.906Z,22.08
2023-05-20T12:30:02.856Z,22.22
2023-05-20T12:31:02.841Z,22.23
2023-05-20T12:32:02.863Z,22.32
2023-05-20T12:33:02.861Z,22.32
2023-05-20T12:34:02.824Z,22.44
2023-05-20T12:35:02.812Z,22.41
2023-05-20T12:36:02.800Z,22.22
2023-05-20T12:37:02.770Z,22.13
2023-05-20T12:38:02.769Z,21.99
2023-05-20T12:39:02.759Z,22.11
2023-05-20T12:40:02.742Z,22.28
2023-05-20T12:41:02.775Z,22.15
2023-05-20T12:42:02.729Z,21.98
2023-05-20T12:43:02.725Z,21.69
2023-05-20T12:44:02.703Z,21.75
2023-05-20T12:45:02.681Z,21.66
2023-05-20T12:46:02.707Z,21.60
2023-05-20T12:47:02.724Z,21.66
2023-05-20T12:48:02.717Z,21.70
2023-05-20T12:49:02.649Z,21.85
2023-05-20T12:50:02.636Z,22.00
2023-05-20T12:51:02.620Z,22.15
2023-05-20T12:52:08.516Z,22.22